Time;durP1;ratioP1;P1;durP2;ratioP2;P2;SDS_P1;SDS_P2;PMS_P1;PMS_P2;Temp;Humidity;BMP_temperature;BMP_pressure;BME280_temperature;BME280_humidity;BME280_pressure;Samples;Min_cycle;Max_cycle;Signal;HPM_P1;HPM_P2
2022/08/04 00:02:12;;;;;;;10.32;5.32;;;23.30;99.90;;;;;;5068714;28;20056;-80
2022/08/04 00:04:46;;;;;;;10.85;5.47;;;23.30;99.90;;;;;;5084870;28;20485;-80
2022/08/04 00:07:48;;;;;;;11.73;5.68;;;23.30;99.90;;;;;;5090796;28;20157;-80
2022/08/04 00:10:16;;;;;;;12.38;6.05;;;23.30;99.90;;;;;;5104578;28;20048;-80
2022/08/04 00:12:54;;;;;;;10.52;5.43;;;23.30;99.90;;;;;;5103249;28;20056;-78
2022/08/04 00:15:20;;;;;;;11.20;5.47;;;23.30;99.90;;;;;;5109727;28;20044;-78
2022/08/04 00:18:02;;;;;;;7.40;5.25;;;23.30;99.90;;;;;;5075808;28;20517;-78
2022/08/04 00:20:33;;;;;;;13.05;6.20;;;23.30;99.90;;;;;;5085691;28;20044;-78
2022/08/04 00:23:01;;;;;;;9.55;5.65;;;23.30;99.90;;;;;;5102583;28;20394;-78
2022/08/04 00:25:27;;;;;;;10.85;5.90;;;23.30;99.90;;;;;;5089427;28;20059;-78
2022/08/04 00:27:54;;;;;;;11.13;6.70;;;23.20;99.90;;;;;;5081542;28;20046;-78
2022/08/04 00:30:20;;;;;;;11.18;6.15;;;23.20;99.90;;;;;;5098048;28;20138;-78
2022/08/04 00:32:46;;;;;;;10.75;6.05;;;23.10;99.90;;;;;;5072858;28;20105;-78
2022/08/04 00:35:15;;;;;;;11.15;6.20;;;23.10;99.90;;;;;;5099907;28;20059;-78
2022/08/04 00:37:44;;;;;;;11.80;5.60;;;23.10;99.90;;;;;;5071430;28;20036;-78
2022/08/04 00:40:31;;;;;;;14.82;6.40;;;23.10;99.90;;;;;;5071885;28;20517;-78
2022/08/04 00:43:25;;;;;;;10.27;6.50;;;23.00;99.90;;;;;;5090464;28;20044;-79
2022/08/04 00:46:25;;;;;;;13.05;6.32;;;22.90;99.90;;;;;;5079634;28;20100;-78
2022/08/04 00:48:50;;;;;;;12.20;6.53;;;23.00;99.90;;;;;;5093795;28;20110;-78
2022/08/04 00:51:48;;;;;;;11.57;6.70;;;22.80;99.90;;;;;;5077292;28;20142;-78
2022/08/04 00:54:52;;;;;;;11.30;6.35;;;22.80;99.90;;;;;;5017376;28;20414;-78
2022/08/04 00:57:26;;;;;;;12.45;6.22;;;22.80;99.90;;;;;;5094712;28;20048;-78
2022/08/04 01:00:11;;;;;;;17.00;6.65;;;22.80;99.90;;;;;;5091331;28;20097;-78
2022/08/04 01:02:45;;;;;;;13.02;5.97;;;22.80;99.90;;;;;;5093770;28;20048;-78
2022/08/04 01:05:17;;;;;;;11.90;6.35;;;22.80;99.90;;;;;;5087923;28;20048;-78
2022/08/04 01:07:52;;;;;;;12.32;5.82;;;22.80;99.90;;;;;;5094344;28;20040;-78
2022/08/04 01:10:36;;;;;;;12.23;6.63;;;22.80;99.90;;;;;;5071892;28;20134;-78
2022/08/04 01:13:39;;;;;;;13.82;6.22;;;22.80;99.90;;;;;;5072846;28;20067;-78
2022/08/04 01:16:07;;;;;;;12.07;5.93;;;22.80;99.90;;;;;;5089611;28;20047;-78
2022/08/04 01:18:44;;;;;;;13.68;6.13;;;22.80;99.90;;;;;;5096718;28;20109;-78
2022/08/04 01:21:30;;;;;;;14.40;5.78;;;22.80;99.90;;;;;;5087004;28;20074;-78
2022/08/04 01:24:01;;;;;;;12.60;6.07;;;22.80;99.90;;;;;;5073213;28;20036;-78
2022/08/04 01:27:10;;;;;;;12.35;5.78;;;22.80;99.90;;;;;;5096686;28;20051;-78
2022/08/04 01:29:54;;;;;;;14.48;6.35;;;22.70;99.90;;;;;;5039186;28;20048;-78
2022/08/04 01:32:26;;;;;;;12.40;6.03;;;22.70;99.90;;;;;;5073351;28;20467;-78
2022/08/04 01:35:03;;;;;;;11.48;6.18;;;22.70;99.90;;;;;;5089877;28;20036;-78
2022/08/04 01:38:07;;;;;;;14.45;5.95;;;22.70;99.90;;;;;;5078232;28;20052;-78
2022/08/04 01:40:36;;;;;;;10.10;5.80;;;22.60;99.90;;;;;;5060674;28;20091;-78
2022/08/04 01:43:03;;;;;;;12.10;6.15;;;22.60;99.90;;;;;;5102601;28;21764;-78
2022/08/04 01:45:29;;;;;;;14.50;5.85;;;22.50;99.90;;;;;;5085089;28;20142;-78
2022/08/04 01:47:56;;;;;;;11.68;6.20;;;22.50;99.90;;;;;;5076098;28;20510;-78
2022/08/04 01:50:23;;;;;;;12.05;5.82;;;22.50;99.90;;;;;;5080852;28;20088;-78
2022/08/04 01:52:52;;;;;;;10.32;5.60;;;22.50;99.90;;;;;;5097418;28;20551;-78
2022/08/04 01:55:18;;;;;;;11.15;6.28;;;22.40;99.90;;;;;;5089998;28;20044;-78
2022/08/04 01:57:46;;;;;;;10.30;6.05;;;22.40;99.90;;;;;;5095268;28;20044;-78
2022/08/04 02:00:15;;;;;;;13.52;7.05;;;22.40;99.90;;;;;;5097980;28;20048;-78
2022/08/04 02:02:43;;;;;;;10.73;5.78;;;22.40;99.90;;;;;;5088273;28;20044;-78
2022/08/04 02:05:09;;;;;;;;;;;22.30;99.90;;;;;;5085951;28;20093;-78
2022/08/04 02:07:56;;;;;;;12.65;5.97;;;22.30;99.90;;;;;;5080806;28;19962;-78
2022/08/04 02:10:34;;;;;;;13.90;6.40;;;22.30;99.90;;;;;;5088148;28;20131;-78
2022/08/04 02:13:02;;;;;;;13.98;6.28;;;22.20;99.90;;;;;;5079340;28;20139;-78
2022/08/04 02:15:40;;;;;;;11.25;5.68;;;22.20;99.90;;;;;;5086389;28;20043;-78
2022/08/04 02:18:23;;;;;;;11.00;6.07;;;22.20;99.90;;;;;;5077513;28;20418;-78
2022/08/04 02:20:56;;;;;;;16.30;6.10;;;22.10;99.90;;;;;;5089418;28;20052;-78
2022/08/04 02:23:35;;;;;;;10.57;6.13;;;22.10;99.90;;;;;;5083614;28;20043;-78
2022/08/04 02:26:04;;;;;;;14.45;6.35;;;22.00;99.90;;;;;;5094834;28;20059;-78
2022/08/04 02:28:43;;;;;;;12.13;6.40;;;22.00;99.90;;;;;;5083260;28;20043;-78
2022/08/04 02:31:17;;;;;;;15.60;6.90;;;22.00;99.90;;;;;;5075582;28;20398;-78
2022/08/04 02:33:57;;;;;;;9.85;5.65;;;21.90;99.90;;;;;;5080923;28;20502;-78
2022/08/04 02:36:33;;;;;;;13.35;6.72;;;21.90;99.90;;;;;;5089926;28;20040;-78
2022/08/04 02:39:00;;;;;;;12.60;6.25;;;21.90;99.90;;;;;;5092297;28;20051;-78
2022/08/04 02:41:29;;;;;;;13.55;6.85;;;21.80;99.90;;;;;;5094247;28;20547;-78
2022/08/04 02:43:58;;;;;;;13.10;6.68;;;21.80;99.90;;;;;;5107986;28;20040;-78
2022/08/04 02:46:24;;;;;;;12.68;6.90;;;21.80;99.90;;;;;;5086187;27;20111;-78
2022/08/04 02:48:52;;;;;;;14.90;6.50;;;21.80;99.90;;;;;;5095238;28;20555;-78
2022/08/04 02:51:26;;;;;;;15.55;6.40;;;21.80;99.90;;;;;;5110943;27;20036;-78
2022/08/04 02:53:54;;;;;;;12.93;6.57;;;21.80;99.90;;;;;;5086915;28;20050;-78
2022/08/04 02:56:23;;;;;;;14.85;6.90;;;21.80;99.90;;;;;;5078335;28;20111;-78
2022/08/04 02:58:55;;;;;;;12.23;6.28;;;21.80;99.90;;;;;;5097120;28;20506;-78
2022/08/04 03:01:22;;;;;;;10.10;6.30;;;21.80;99.90;;;;;;5075565;28;20078;-78
2022/08/04 03:04:03;;;;;;;12.88;5.70;;;21.70;99.90;;;;;;5104367;28;20040;-78
2022/08/04 03:06:37;;;;;;;14.63;6.32;;;21.80;99.90;;;;;;5074913;28;20055;-78
2022/08/04 03:09:33;;;;;;;12.10;6.63;;;21.80;99.90;;;;;;5080200;28;20258;-78
2022/08/04 03:12:21;;;;;;;14.15;7.22;;;21.80;99.90;;;;;;5077058;28;20389;-78
2022/08/04 03:15:23;;;;;;;16.77;6.82;;;21.70;99.90;;;;;;5091956;28;20040;-78
2022/08/04 03:18:13;;;;;;;17.63;7.03;;;21.70;99.90;;;;;;5092624;28;20131;-78
2022/08/04 03:21:03;;;;;;;12.43;6.50;;;21.60;99.90;;;;;;5101303;28;20048;-78
2022/08/04 03:23:43;;;;;;;13.85;7.03;;;21.60;99.90;;;;;;5092801;28;20398;-79
2022/08/04 03:26:32;;;;;;;15.88;6.78;;;21.60;99.90;;;;;;5091260;28;20102;-79
2022/08/04 03:29:23;;;;;;;13.88;6.55;;;21.60;99.90;;;;;;5074559;28;20071;-78
2022/08/04 03:32:11;;;;;;;14.65;6.68;;;21.50;99.90;;;;;;5087396;28;20514;-78
2022/08/04 03:35:14;;;;;;;17.92;7.38;;;21.50;99.90;;;;;;5088700;28;20048;-78
2022/08/04 03:37:59;;;;;;;13.88;6.68;;;21.50;99.90;;;;;;5101421;28;20065;-79
2022/08/04 03:40:30;;;;;;;13.88;6.75;;;21.50;99.90;;;;;;5081848;28;20398;-79
2022/08/04 03:43:37;;;;;;;16.13;7.03;;;21.50;99.90;;;;;;5074460;28;20060;-78
2022/08/04 03:46:12;;;;;;;;;;;21.50;99.90;;;;;;5100170;28;20132;-79
2022/08/04 03:49:07;;;;;;;10.32;6.45;;;21.40;99.90;;;;;;5088784;28;20054;-79
2022/08/04 03:54:39;;;;;;;13.27;6.50;;;21.40;99.90;;;;;;5085370;28;20047;-78
2022/08/04 03:57:28;;;;;;;15.88;6.40;;;21.40;99.90;;;;;;5072006;28;20048;-78
2022/08/04 04:00:00;;;;;;;13.88;7.05;;;21.50;99.90;;;;;;5095826;28;20047;-78
2022/08/04 04:02:54;;;;;;;14.48;6.40;;;21.50;99.90;;;;;;5077283;28;20064;-78
2022/08/04 04:05:47;;;;;;;15.00;6.50;;;21.50;99.90;;;;;;5092282;28;20087;-78
2022/08/04 04:08:34;;;;;;;13.57;6.55;;;21.50;99.90;;;;;;5072662;28;20048;-79
2022/08/04 04:11:19;;;;;;;14.02;5.95;;;21.50;99.90;;;;;;5089292;28;20028;-81
2022/08/04 04:14:09;;;;;;;13.40;5.78;;;21.40;99.90;;;;;;5076786;28;20490;-80
2022/08/04 04:16:46;;;;;;;16.23;6.20;;;21.40;99.90;;;;;;5102089;28;20440;-80
2022/08/04 04:19:37;;;;;;;13.88;6.38;;;21.40;99.90;;;;;;5082513;28;20043;-80
2022/08/04 04:22:32;;;;;;;11.77;6.07;;;21.30;99.90;;;;;;5088906;28;20087;-80
2022/08/04 04:25:10;;;;;;;14.57;5.68;;;21.30;99.90;;;;;;5087336;28;20057;-80
2022/08/04 04:27:50;;;;;;;16.50;5.70;;;21.30;99.90;;;;;;5088992;28;20067;-80
2022/08/04 04:30:38;;;;;;;14.65;5.50;;;21.20;99.90;;;;;;5094289;28;20067;-80
2022/08/04 04:33:28;;;;;;;13.20;5.82;;;21.30;99.90;;;;;;5094461;28;20075;-80
2022/08/04 04:36:36;;;;;;;16.25;6.25;;;21.30;99.90;;;;;;5091292;28;20040;-80
2022/08/04 04:39:33;;;;;;;12.43;5.20;;;21.30;99.90;;;;;;5088196;28;20084;-81
2022/08/04 04:42:23;;;;;;;13.05;5.65;;;21.40;99.90;;;;;;5090853;28;20079;-81
2022/08/04 04:45:02;;;;;;;16.48;5.47;;;21.40;99.90;;;;;;5091056;28;20553;-81
2022/08/04 04:47:46;;;;;;;11.88;5.47;;;21.40;99.90;;;;;;5079068;28;20564;-81
2022/08/04 04:50:41;;;;;;;12.02;5.65;;;21.40;99.90;;;;;;5102504;28;20413;-80
2022/08/04 04:53:32;;;;;;;14.93;5.05;;;21.40;99.90;;;;;;5102117;28;20102;-81
2022/08/04 04:56:22;;;;;;;14.20;5.50;;;21.40;99.90;;;;;;5094294;28;20108;-81
2022/08/04 04:58:51;;;;;;;10.88;5.00;;;21.50;99.90;;;;;;5079406;28;20498;-80
2022/08/04 05:01:20;;;;;;;13.77;5.00;;;21.50;99.90;;;;;;5080655;28;20040;-80
2022/08/04 05:04:13;;;;;;;13.50;5.70;;;21.60;99.90;;;;;;5103493;28;20109;-80
2022/08/04 05:06:54;;;;;;;12.25;5.05;;;21.60;99.90;;;;;;5076711;28;20440;-80
2022/08/04 05:09:32;;;;;;;11.40;5.05;;;21.70;99.90;;;;;;5080735;28;20131;-80
2022/08/04 05:12:34;;;;;;;16.25;5.57;;;21.80;99.90;;;;;;5104428;28;20035;-80
2022/08/04 05:15:02;;;;;;;12.70;5.15;;;21.80;99.90;;;;;;5077159;28;20052;-80
2022/08/04 05:17:42;;;;;;;16.00;5.35;;;21.90;99.90;;;;;;5079496;28;20048;-80
2022/08/04 05:20:28;;;;;;;15.30;5.35;;;22.00;99.90;;;;;;5100095;28;20055;-80
2022/08/04 05:22:59;;;;;;;15.52;4.97;;;22.10;99.90;;;;;;5096605;28;20071;-81
2022/08/04 05:25:36;;;;;;;18.27;5.63;;;22.10;99.90;;;;;;5089528;28;20490;-81
2022/08/04 05:28:10;;;;;;;11.13;5.05;;;22.20;99.90;;;;;;5090385;28;20421;-80
2022/08/04 05:30:47;;;;;;;11.40;5.20;;;22.20;99.90;;;;;;5094952;28;20038;-80
2022/08/04 05:33:15;;;;;;;15.02;5.30;;;22.30;99.90;;;;;;5093230;28;20119;-80
2022/08/04 05:35:48;;;;;;;15.13;5.32;;;22.30;99.90;;;;;;5088324;28;20583;-83
2022/08/04 05:38:19;;;;;;;14.23;4.88;;;22.40;99.90;;;;;;5087360;28;20525;-79
2022/08/04 05:40:45;;;;;;;15.70;5.25;;;22.40;99.90;;;;;;5093550;28;20987;-78
2022/08/04 05:43:12;;;;;;;17.98;5.40;;;22.50;99.90;;;;;;5084162;28;20505;-78
2022/08/04 05:45:40;;;;;;;18.13;5.32;;;22.50;99.90;;;;;;5086660;28;20048;-78
2022/08/04 05:48:07;;;;;;;14.20;4.85;;;22.60;99.90;;;;;;5091475;28;20838;-77
2022/08/04 05:50:33;;;;;;;14.82;5.05;;;22.60;99.90;;;;;;5092496;28;20374;-78
2022/08/04 05:53:00;;;;;;;16.90;5.28;;;22.60;99.90;;;;;;5095052;28;20047;-78
2022/08/04 05:55:28;;;;;;;13.77;5.50;;;22.60;99.90;;;;;;5098906;28;20035;-78
2022/08/04 05:57:55;;;;;;;13.05;5.15;;;22.70;99.90;;;;;;5099120;28;20498;-78
2022/08/04 06:00:21;;;;;;;10.95;5.60;;;22.70;99.90;;;;;;5090863;28;20043;-77
2022/08/04 06:02:51;;;;;;;15.27;5.63;;;22.70;99.90;;;;;;5075509;28;20415;-79
2022/08/04 06:05:17;;;;;;;13.38;5.28;;;22.70;99.90;;;;;;5096579;28;20371;-78
2022/08/04 06:07:44;;;;;;;14.77;5.45;;;22.80;99.90;;;;;;5099661;28;20984;-78
2022/08/04 06:10:10;;;;;;;17.27;5.60;;;22.80;99.90;;;;;;5103062;28;20092;-78
2022/08/04 06:12:45;;;;;;;15.30;5.35;;;22.90;99.90;;;;;;5098914;28;20056;-79
2022/08/04 06:15:15;;;;;;;13.63;5.22;;;23.00;99.90;;;;;;5092446;28;20048;-78
2022/08/04 06:17:54;;;;;;;14.45;5.20;;;23.00;99.90;;;;;;5107020;28;20079;-78
2022/08/04 06:20:21;;;;;;;16.08;5.30;;;23.10;99.90;;;;;;5095271;27;20039;-79
2022/08/04 06:22:53;;;;;;;16.65;5.60;;;23.20;99.90;;;;;;5104814;28;20031;-78
2022/08/04 06:25:22;;;;;;;15.35;6.13;;;23.20;99.90;;;;;;5099351;28;20141;-79
2022/08/04 06:27:50;;;;;;;15.38;5.40;;;23.20;99.90;;;;;;5106538;28;20432;-78
2022/08/04 06:30:24;;;;;;;14.23;5.32;;;23.20;99.90;;;;;;5099227;28;20569;-76
2022/08/04 06:32:55;;;;;;;15.85;5.55;;;23.20;99.90;;;;;;5101161;27;20101;-77
2022/08/04 06:35:22;;;;;;;14.38;5.53;;;23.20;99.90;;;;;;5083140;28;20032;-77
2022/08/04 06:37:49;;;;;;;16.27;5.82;;;23.20;99.90;;;;;;5097069;28;20039;-77
2022/08/04 06:40:17;;;;;;;11.98;6.05;;;23.20;99.90;;;;;;5075953;28;20074;-77
2022/08/04 06:42:44;;;;;;;19.10;6.60;;;23.30;99.90;;;;;;5075405;28;20047;-77
2022/08/04 06:45:12;;;;;;;17.95;7.43;;;23.30;99.90;;;;;;5096707;27;20105;-76
2022/08/04 06:47:40;;;;;;;19.02;6.60;;;23.30;99.90;;;;;;5080420;28;20054;-77
2022/08/04 06:50:07;;;;;;;14.38;6.40;;;23.30;99.90;;;;;;5093869;28;20130;-76
2022/08/04 06:52:33;;;;;;;12.15;5.55;;;23.40;99.90;;;;;;5113284;28;20089;-76
2022/08/04 06:54:59;;;;;;;13.05;5.72;;;23.40;99.90;;;;;;5105419;28;20052;-78
2022/08/04 06:57:45;;;;;;;12.27;5.72;;;23.50;99.90;;;;;;5083829;28;20123;-79
2022/08/04 07:00:13;;;;;;;12.83;6.07;;;23.60;99.90;;;;;;5104307;28;20070;-79
2022/08/04 07:02:44;;;;;;;13.57;5.50;;;23.60;99.90;;;;;;5101830;28;20285;-76
2022/08/04 07:05:10;;;;;;;14.63;6.05;;;23.60;99.90;;;;;;5095057;27;20426;-79
2022/08/04 07:07:39;;;;;;;16.03;5.87;;;23.60;99.90;;;;;;5099490;27;20052;-81
2022/08/04 07:10:08;;;;;;;11.68;5.22;;;23.70;99.90;;;;;;5110117;28;20402;-81
2022/08/04 07:12:34;;;;;;;13.97;5.17;;;23.80;99.90;;;;;;5107993;28;20123;-80
2022/08/04 07:15:00;;;;;;;13.73;5.30;;;23.90;99.90;;;;;;5110989;28;20043;-74
2022/08/04 07:17:37;;;;;;;16.35;6.07;;;23.90;99.90;;;;;;5111310;27;20069;-80
2022/08/04 07:20:20;;;;;;;13.75;5.70;;;24.00;99.90;;;;;;5082640;28;20047;-80
2022/08/04 07:22:48;;;;;;;13.23;6.85;;;24.00;99.90;;;;;;5081541;27;20051;-78
2022/08/04 07:25:15;;;;;;;17.00;7.05;;;24.00;99.90;;;;;;5081021;28;20116;-77
2022/08/04 07:27:42;;;;;;;14.80;7.00;;;24.00;99.90;;;;;;5087621;28;20123;-77
2022/08/04 07:30:09;;;;;;;12.73;6.55;;;24.00;99.90;;;;;;5091723;28;20075;-77
2022/08/04 07:32:36;;;;;;;14.77;6.95;;;24.00;99.90;;;;;;5083660;27;20046;-77
2022/08/04 07:35:03;;;;;;;13.85;7.10;;;24.10;99.90;;;;;;5092134;28;20413;-79
2022/08/04 07:37:29;;;;;;;14.73;6.90;;;24.10;99.90;;;;;;5113010;27;20040;-78
2022/08/04 07:39:55;;;;;;;15.75;7.35;;;24.20;99.90;;;;;;5103357;27;20383;-79
2022/08/04 07:42:21;;;;;;;14.50;7.50;;;24.20;99.90;;;;;;5092945;28;20072;-78
2022/08/04 07:44:59;;;;;;;14.10;7.82;;;24.20;99.90;;;;;;5086975;28;20081;-80
2022/08/04 07:47:28;;;;;;;14.82;7.28;;;24.30;99.90;;;;;;5104326;27;20051;-80
2022/08/04 07:49:54;;;;;;;15.68;7.15;;;24.30;99.90;;;;;;5101705;27;20069;-80
2022/08/04 07:52:26;;;;;;;16.30;6.60;;;24.40;99.90;;;;;;5092762;28;20131;-81
2022/08/04 07:55:03;;;;;;;14.25;7.45;;;24.50;99.90;;;;;;5098182;28;20118;-83
2022/08/04 07:57:28;;;;;;;15.05;6.70;;;24.50;99.90;;;;;;5096014;28;20040;-79
2022/08/04 07:59:54;;;;;;;17.10;7.40;;;24.50;99.90;;;;;;5095732;28;20031;-81
2022/08/04 08:02:29;;;;;;;13.93;6.90;;;24.60;99.90;;;;;;5078790;28;20490;-85
2022/08/04 08:04:55;;;;;;;20.33;8.15;;;24.60;99.90;;;;;;5091878;28;20043;-80
2022/08/04 08:07:24;;;;;;;14.63;7.50;;;24.60;99.90;;;;;;5088750;28;20040;-82
2022/08/04 08:09:52;;;;;;;16.95;7.68;;;24.60;99.90;;;;;;5086946;28;20044;-79
2022/08/04 08:12:19;;;;;;;13.77;7.60;;;24.60;99.90;;;;;;5072698;28;20055;-78
2022/08/04 08:14:45;;;;;;;13.90;7.47;;;24.60;99.90;;;;;;5090186;28;20118;-76
2022/08/04 08:17:11;;;;;;;16.93;7.97;;;24.60;99.90;;;;;;5078613;28;20054;-75
2022/08/04 08:19:37;;;;;;;14.77;7.35;;;24.60;99.90;;;;;;5081467;28;20317;-73
2022/08/04 08:22:03;;;;;;;12.55;7.35;;;24.70;99.90;;;;;;5091743;28;20052;-75
2022/08/04 08:24:30;;;;;;;11.97;6.90;;;24.70;99.90;;;;;;5079116;27;20116;-74
2022/08/04 08:26:56;;;;;;;;;;;24.70;99.90;;;;;;5090779;28;20066;-73
2022/08/04 08:29:23;;;;;;;16.57;7.07;;;24.80;99.90;;;;;;5089119;28;20370;-75
2022/08/04 08:31:49;;;;;;;11.20;6.97;;;24.80;99.90;;;;;;5078257;28;20686;-75
2022/08/04 08:34:14;;;;;;;10.85;7.25;;;24.90;99.90;;;;;;5076679;28;20039;-75
2022/08/04 08:36:47;;;;;;;14.73;7.05;;;24.90;99.90;;;;;;5108778;27;20046;-74
2022/08/04 08:39:39;;;;;;;14.35;6.72;;;25.00;99.90;;;;;;5085687;28;20058;-73
2022/08/04 08:42:20;;;;;;;12.60;6.75;;;25.00;99.90;;;;;;5106181;28;20040;-72
2022/08/04 08:45:04;;;;;;;13.98;7.05;;;25.10;99.90;;;;;;5082051;28;20110;-73
2022/08/04 08:47:48;;;;;;;17.40;6.88;;;25.20;99.90;;;;;;5092777;28;20131;-73
2022/08/04 08:50:36;;;;;;;16.65;6.88;;;25.20;99.90;;;;;;5089922;28;20051;-75
2022/08/04 08:53:21;;;;;;;12.80;6.50;;;25.40;99.90;;;;;;5078893;28;20039;-75
2022/08/04 08:55:56;;;;;;;17.15;6.28;;;25.60;99.90;;;;;;5070667;28;20044;-73
2022/08/04 08:58:22;;;;;;;14.80;5.53;;;25.70;99.90;;;;;;5073741;28;20127;-76
2022/08/04 09:01:05;;;;;;;13.23;5.43;;;25.90;99.90;;;;;;5089993;28;20123;-76
2022/08/04 09:03:31;;;;;;;12.77;4.93;;;26.00;99.90;;;;;;5097509;28;20055;-77
2022/08/04 09:06:26;;;;;;;12.68;4.82;;;26.10;99.90;;;;;;5088230;28;20048;-75
2022/08/04 09:09:18;;;;;;;14.95;5.18;;;26.30;99.90;;;;;;5093024;28;20627;-77
2022/08/04 09:12:01;;;;;;;13.43;5.22;;;26.40;99.90;;;;;;5106691;28;20039;-74
2022/08/04 09:14:39;;;;;;;9.80;4.57;;;26.60;99.90;;;;;;5082706;28;20127;-75
2022/08/04 09:17:10;;;;;;;13.70;5.57;;;26.70;99.90;;;;;;5066647;28;20052;-75
2022/08/04 09:19:44;;;;;;;17.42;5.78;;;26.80;99.90;;;;;;5069613;28;20040;-75
2022/08/04 09:22:20;;;;;;;12.68;4.07;;;26.90;99.90;;;;;;5071671;28;20048;-75
2022/08/04 09:25:06;;;;;;;17.17;4.30;;;27.10;99.90;;;;;;5086117;28;20378;-75
2022/08/04 09:27:51;;;;;;;11.38;3.97;;;27.20;99.90;;;;;;5087820;28;20060;-74
2022/08/04 09:30:19;;;;;;;10.88;4.00;;;27.30;99.90;;;;;;5085594;28;20074;-74
2022/08/04 09:32:56;;;;;;;10.68;3.65;;;27.40;99.90;;;;;;5067078;28;20051;-75
2022/08/04 09:35:32;;;;;;;11.82;4.00;;;27.60;99.90;;;;;;5083107;28;20057;-75
2022/08/04 09:38:12;;;;;;;10.32;3.60;;;27.60;99.90;;;;;;5068211;28;20043;-75
2022/08/04 09:41:03;;;;;;;12.90;3.90;;;27.70;99.90;;;;;;5071074;28;20497;-74
2022/08/04 09:43:47;;;;;;;12.07;4.05;;;27.70;99.90;;;;;;5082144;28;20047;-74
2022/08/04 09:46:33;;;;;;;10.25;3.80;;;27.80;99.90;;;;;;5087247;28;20417;-75
2022/08/04 09:49:06;;;;;;;13.55;3.95;;;27.90;99.90;;;;;;5073485;28;20147;-75
2022/08/04 09:51:50;;;;;;;12.20;4.35;;;27.90;99.90;;;;;;5075259;28;20048;-74
2022/08/04 09:54:40;;;;;;;10.57;4.10;;;28.00;99.90;;;;;;5086973;28;20055;-74
2022/08/04 09:57:28;;;;;;;12.80;4.15;;;28.20;99.90;;;;;;5073435;28;20041;-73
2022/08/04 10:00:15;;;;;;;9.25;3.75;;;28.30;99.90;;;;;;5071527;28;20075;-75
2022/08/04 10:02:47;;;;;;;;;;;28.20;99.90;;;;;;5090192;28;20047;-74
2022/08/04 10:05:21;;;;;;;9.60;3.97;;;28.30;99.90;;;;;;5092887;28;19920;-74
2022/08/04 10:08:08;;;;;;;12.05;4.47;;;28.30;99.90;;;;;;5088300;28;20506;-74
2022/08/04 10:10:54;;;;;;;10.70;3.65;;;28.30;99.20;;;;;;5072401;28;20071;-74
2022/08/04 10:13:41;;;;;;;12.75;4.75;;;28.40;99.50;;;;;;5078270;28;20052;-76
2022/08/04 10:16:39;;;;;;;14.13;4.68;;;28.30;97.90;;;;;;5093831;28;20055;-75
2022/08/04 10:19:27;;;;;;;11.23;3.95;;;28.30;98.80;;;;;;5094334;28;20063;-73
2022/08/04 10:22:05;;;;;;;10.27;3.55;;;28.30;99.40;;;;;;5112549;28;20047;-74
2022/08/04 10:24:52;;;;;;;11.07;3.97;;;28.30;99.90;;;;;;5094458;28;20055;-75
2022/08/04 10:27:31;;;;;;;12.02;4.53;;;28.40;99.20;;;;;;5091170;28;20134;-73
2022/08/04 10:30:10;;;;;;;12.48;3.90;;;28.50;99.90;;;;;;5087549;28;20402;-74
2022/08/04 10:32:51;;;;;;;12.10;4.00;;;28.60;99.90;;;;;;5104540;28;20089;-73
2022/08/04 10:35:20;;;;;;;9.95;4.05;;;28.70;98.60;;;;;;5075538;28;20494;-73
2022/08/04 10:38:04;;;;;;;8.68;3.60;;;28.80;99.70;;;;;;5074605;28;20061;-75
2022/08/04 10:40:35;;;;;;;11.70;3.80;;;28.90;99.60;;;;;;5083587;28;20070;-76
2022/08/04 10:43:03;;;;;;;11.15;3.85;;;29.10;99.50;;;;;;5093820;28;20035;-72
2022/08/04 10:45:40;;;;;;;13.63;4.40;;;29.10;96.80;;;;;;5100291;28;20101;-73
2022/08/04 10:48:30;;;;;;;10.85;3.58;;;29.10;97.70;;;;;;5103414;28;20040;-78
2022/08/04 10:51:10;;;;;;;14.20;4.15;;;29.10;97.30;;;;;;5083104;28;20043;-77
2022/08/04 10:53:38;;;;;;;11.48;3.95;;;29.20;97.80;;;;;;5095297;28;20516;-79
2022/08/04 10:56:21;;;;;;;12.95;3.88;;;29.40;98.10;;;;;;5083902;28;20054;-78
2022/08/04 10:58:55;;;;;;;16.63;4.50;;;29.50;97.80;;;;;;5090774;28;20138;-78
2022/08/04 11:01:30;;;;;;;10.88;5.28;;;29.70;97.60;;;;;;5087746;28;20628;-78
2022/08/04 11:04:22;;;;;;;9.68;4.90;;;29.80;96.10;;;;;;5109941;28;20538;-79
2022/08/04 11:06:51;;;;;;;16.38;5.18;;;29.80;97.20;;;;;;5093383;28;20375;-78
2022/08/04 11:09:19;;;;;;;10.95;5.20;;;29.80;97.10;;;;;;5100462;28;20075;-77
2022/08/04 11:11:52;;;;;;;13.80;5.40;;;29.80;97.60;;;;;;5098511;28;20781;-78
2022/08/04 11:14:23;;;;;;;10.43;4.70;;;29.90;97.80;;;;;;5097835;28;20087;-76
2022/08/04 11:17:06;;;;;;;11.20;5.80;;;29.90;99.20;;;;;;5107670;27;20036;-76
2022/08/04 11:19:57;;;;;;;10.93;5.68;;;29.90;98.20;;;;;;5101765;28;20501;-77
2022/08/04 11:22:22;;;;;;;13.68;5.45;;;29.80;98.20;;;;;;5077983;28;20619;-76
2022/08/04 11:25:08;;;;;;;9.70;5.30;;;29.90;98.10;;;;;;5085245;27;20062;-77
2022/08/04 11:28:02;;;;;;;10.90;5.80;;;29.90;98.40;;;;;;5104596;28;20091;-76
2022/08/04 11:30:56;;;;;;;10.95;5.82;;;29.80;99.10;;;;;;5083215;28;20042;-75
2022/08/04 11:33:51;;;;;;;11.52;6.13;;;29.80;99.00;;;;;;5095454;28;20507;-75
2022/08/04 11:36:52;;;;;;;11.63;5.80;;;29.70;99.40;;;;;;5095547;28;20051;-75
2022/08/04 11:39:51;;;;;;;11.00;5.43;;;29.60;99.90;;;;;;5094950;28;20133;-74
2022/08/04 11:42:43;;;;;;;12.15;5.13;;;29.50;99.90;;;;;;5068139;28;20051;-76
2022/08/04 11:45:27;;;;;;;10.60;5.67;;;29.30;99.90;;;;;;5087812;28;20044;-75
2022/08/04 11:48:12;;;;;;;11.85;5.28;;;29.30;99.90;;;;;;5088915;28;20046;-76
2022/08/04 11:51:11;;;;;;;10.55;5.25;;;29.30;99.90;;;;;;5100470;28;20050;-75
2022/08/04 11:53:58;;;;;;;;;;;29.20;99.90;;;;;;5095647;28;20104;-80
2022/08/04 11:56:27;;;;;;;11.60;4.70;;;28.90;99.90;;;;;;5104715;28;19973;-80
2022/08/04 11:58:55;;;;;;;9.40;5.07;;;28.70;99.90;;;;;;5087872;28;20092;-78
2022/08/04 12:01:27;;;;;;;7.20;4.30;;;28.60;99.90;;;;;;5105315;28;20048;-77
2022/08/04 12:04:15;;;;;;;10.15;4.00;;;28.40;99.90;;;;;;5089467;28;20123;-76
2022/08/04 12:07:10;;;;;;;9.77;3.70;;;28.20;99.90;;;;;;5085598;28;20043;-78
2022/08/04 12:10:02;;;;;;;11.18;3.90;;;28.00;99.90;;;;;;5103823;28;20079;-80
2022/08/04 12:12:31;;;;;;;7.38;3.70;;;27.90;99.90;;;;;;5111309;27;20470;-76
2022/08/04 12:15:03;;;;;;;12.63;3.20;;;27.90;99.90;;;;;;5107829;28;20130;-76
2022/08/04 12:18:03;;;;;;;10.85;2.95;;;27.80;99.90;;;;;;5074033;28;20096;-76
2022/08/04 12:20:41;;;;;;;9.63;2.83;;;27.60;99.90;;;;;;5069852;28;20047;-77
2022/08/04 12:23:23;;;;;;;6.82;2.80;;;27.50;99.90;;;;;;5075136;28;20828;-76
2022/08/04 12:25:54;;;;;;;11.10;2.97;;;27.40;99.90;;;;;;5090247;28;20048;-77
2022/08/04 12:28:32;;;;;;;11.70;3.30;;;27.30;99.90;;;;;;5095011;28;20099;-79
2022/08/04 12:31:18;;;;;;;6.50;2.53;;;27.30;99.90;;;;;;5106807;28;20176;-78
2022/08/04 12:34:08;;;;;;;8.63;2.70;;;27.20;99.90;;;;;;5103539;28;20039;-77
2022/08/04 12:37:11;;;;;;;6.63;2.80;;;27.10;99.90;;;;;;5095005;28;20047;-76
2022/08/04 12:39:40;;;;;;;12.35;3.03;;;27.00;99.90;;;;;;5093289;28;20052;-76
2022/08/04 12:42:29;;;;;;;7.47;3.05;;;26.80;99.90;;;;;;5097872;28;20064;-78
2022/08/04 12:44:58;;;;;;;10.80;2.88;;;26.70;99.90;;;;;;5099352;28;20051;-77
2022/08/04 12:47:26;;;;;;;6.97;2.97;;;26.60;99.90;;;;;;5098294;28;20126;-76
2022/08/04 12:49:53;;;;;;;8.95;2.83;;;26.50;99.90;;;;;;5099638;28;20040;-81
2022/08/04 12:52:20;;;;;;;13.68;3.17;;;26.40;99.90;;;;;;5097930;28;20036;-76
2022/08/04 12:54:52;;;;;;;9.85;3.13;;;26.30;99.90;;;;;;5094435;28;20078;-76
2022/08/04 12:57:23;;;;;;;12.13;3.53;;;26.30;99.90;;;;;;5094455;28;20437;-77
2022/08/04 12:59:49;;;;;;;12.65;3.15;;;26.20;99.90;;;;;;5092147;28;20052;-78
2022/08/04 13:02:32;;;;;;;7.97;3.10;;;26.00;99.90;;;;;;5073086;28;20097;-80
2022/08/04 13:05:10;;;;;;;8.65;3.63;;;25.90;99.90;;;;;;5095333;28;20036;-78
2022/08/04 13:07:50;;;;;;;11.70;3.38;;;25.80;99.90;;;;;;5093357;28;20043;-79
2022/08/04 13:10:23;;;;;;;8.05;3.20;;;25.80;99.90;;;;;;5095054;28;20036;-78
2022/08/04 13:13:02;;;;;;;9.93;3.50;;;25.70;99.90;;;;;;5096562;28;20490;-78
2022/08/04 13:15:43;;;;;;;9.18;3.88;;;25.70;99.90;;;;;;5092115;28;20507;-80
2022/08/04 13:18:38;;;;;;;8.70;3.63;;;25.60;99.90;;;;;;5087222;28;20059;-79
2022/08/04 13:21:29;;;;;;;10.15;4.20;;;25.70;99.90;;;;;;5087100;28;20111;-79
2022/08/04 13:24:19;;;;;;;8.77;3.88;;;25.70;99.90;;;;;;5089894;28;20085;-77
2022/08/04 13:27:22;;;;;;;11.82;4.10;;;25.70;99.90;;;;;;5097987;28;20118;-79
2022/08/04 13:29:51;;;;;;;11.10;3.70;;;25.80;99.90;;;;;;5094763;28;20036;-75
2022/08/04 13:32:21;;;;;;;7.10;3.30;;;25.70;99.90;;;;;;5080628;28;20051;-75
2022/08/04 13:34:49;;;;;;;5.75;2.67;;;25.80;99.90;;;;;;5092699;28;20087;-75